sensor_id;sensor_type;location;lat;lon;timestamp;pressure;altitude;pressure_sealevel;temperature;humidity
59513;BME280;45330;51.634;5.562;2023-02-14T00:01:21;103384.53;;;1.06;100.00
59513;BME280;45330;51.634;5.562;2023-02-14T00:03:47;103402.03;;;1.12;100.00
59513;BME280;45330;51.634;5.562;2023-02-14T00:06:14;103405.03;;;1.06;100.00
59513;BME280;45330;51.634;5.562;2023-02-14T00:08:40;103352.03;;;0.71;100.00
59513;BME280;45330;51.634;5.562;2023-02-14T00:11:08;103383.19;;;0.88;100.00
59513;BME280;45330;51.634;5.562;2023-02-14T00:13:34;103413.06;;;0.99;100.00
59513;BME280;45330;51.634;5.562;2023-02-14T00:15:59;103387.28;;;0.85;100.00
59513;BME280;45330;51.634;5.562;2023-02-14T00:18:24;103375.69;;;0.79;100.00
59513;BME280;45330;51.634;5.562;2023-02-14T00:21:13;103393.44;;;0.88;100.00
59513;BME280;45330;51.634;5.562;2023-02-14T00:23:39;103399.22;;;0.85;100.00
59513;BME280;45330;51.634;5.562;2023-02-14T00:26:04;103397.31;;;0.82;100.00
59513;BME280;45330;51.634;5.562;2023-02-14T00:28:29;103388.63;;;0.80;100.00
59513;BME280;45330;51.634;5.562;2023-02-14T00:30:56;103388.16;;;0.74;100.00
59513;BME280;45330;51.634;5.562;2023-02-14T00:33:21;103388.69;;;0.70;100.00
59513;BME280;45330;51.634;5.562;2023-02-14T00:35:47;103393.03;;;0.71;100.00
59513;BME280;45330;51.634;5.562;2023-02-14T00:38:12;103399.47;;;0.66;100.00
59513;BME280;45330;51.634;5.562;2023-02-14T00:40:37;103370.94;;;0.49;100.00
59513;BME280;45330;51.634;5.562;2023-02-14T00:43:03;103375.38;;;0.52;100.00
59513;BME280;45330;51.634;5.562;2023-02-14T00:45:28;103375.25;;;0.50;100.00
59513;BME280;45330;51.634;5.562;2023-02-14T00:47:53;103363.91;;;0.47;100.00
59513;BME280;45330;51.634;5.562;2023-02-14T00:50:19;103385.22;;;0.58;100.00
59513;BME280;45330;51.634;5.562;2023-02-14T00:52:44;103392.75;;;0.56;100.00
59513;BME280;45330;51.634;5.562;2023-02-14T00:55:10;103360.75;;;0.39;100.00
59513;BME280;45330;51.634;5.562;2023-02-14T00:57:35;103384.75;;;0.51;100.00
59513;BME280;45330;51.634;5.562;2023-02-14T01:00:01;103387.06;;;0.48;100.00
59513;BME280;45330;51.634;5.562;2023-02-14T01:02:26;103366.41;;;0.35;100.00
59513;BME280;45330;51.634;5.562;2023-02-14T01:04:51;103367.84;;;0.31;100.00
59513;BME280;45330;51.634;5.562;2023-02-14T01:07:17;103361.47;;;0.26;100.00
59513;BME280;45330;51.634;5.562;2023-02-14T01:09:42;103366.72;;;0.28;100.00
59513;BME280;45330;51.634;5.562;2023-02-14T01:12:07;103397.28;;;0.37;100.00
59513;BME280;45330;51.634;5.562;2023-02-14T01:14:33;103385.00;;;0.32;100.00
59513;BME280;45330;51.634;5.562;2023-02-14T01:16:58;103360.00;;;0.18;100.00
59513;BME280;45330;51.634;5.562;2023-02-14T01:19:24;103380.16;;;0.25;100.00
59513;BME280;45330;51.634;5.562;2023-02-14T01:21:49;103385.97;;;0.23;100.00
59513;BME280;45330;51.634;5.562;2023-02-14T01:24:14;103378.81;;;0.19;100.00
59513;BME280;45330;51.634;5.562;2023-02-14T01:26:40;103380.34;;;0.16;100.00
59513;BME280;45330;51.634;5.562;2023-02-14T01:29:05;103384.47;;;0.14;100.00
59513;BME280;45330;51.634;5.562;2023-02-14T01:31:32;103376.06;;;0.05;100.00
59513;BME280;45330;51.634;5.562;2023-02-14T01:33:59;103386.66;;;0.10;100.00
59513;BME280;45330;51.634;5.562;2023-02-14T01:36:50;103394.22;;;0.08;100.00
59513;BME280;45330;51.634;5.562;2023-02-14T01:39:15;103395.78;;;0.06;100.00
59513;BME280;45330;51.634;5.562;2023-02-14T01:41:43;103367.97;;;-0.11;100.00
59513;BME280;45330;51.634;5.562;2023-02-14T01:46:38;103396.09;;;-0.01;100.00
59513;BME280;45330;51.634;5.562;2023-02-14T01:49:18;103360.34;;;-0.22;100.00
59513;BME280;45330;51.634;5.562;2023-02-14T01:52:16;103391.50;;;-0.05;100.00
59513;BME280;45330;51.634;5.562;2023-02-14T01:54:48;103367.25;;;-0.21;100.00
59513;BME280;45330;51.634;5.562;2023-02-14T01:57:17;103379.88;;;-0.12;100.00
59513;BME280;45330;51.634;5.562;2023-02-14T01:59:52;103373.13;;;-0.22;100.00
59513;BME280;45330;51.634;5.562;2023-02-14T02:02:20;103397.13;;;-0.09;100.00
59513;BME280;45330;51.634;5.562;2023-02-14T02:04:49;103346.56;;;-0.34;100.00
59513;BME280;45330;51.634;5.562;2023-02-14T02:07:22;103380.91;;;-0.10;100.00
59513;BME280;45330;51.634;5.562;2023-02-14T02:09:53;103354.22;;;-0.24;100.00
59513;BME280;45330;51.634;5.562;2023-02-14T02:12:19;103347.31;;;-0.25;100.00
59513;BME280;45330;51.634;5.562;2023-02-14T02:14:46;103367.97;;;-0.11;100.00
59513;BME280;45330;51.634;5.562;2023-02-14T02:32:28;103360.72;;;0.05;100.00
59513;BME280;45330;51.634;5.562;2023-02-14T02:46:51;103354.53;;;0.13;100.00
59513;BME280;45330;51.634;5.562;2023-02-14T02:52:39;103360.19;;;0.09;100.00
59513;BME280;45330;51.634;5.562;2023-02-14T02:58:21;103353.44;;;-0.01;100.00
59513;BME280;45330;51.634;5.562;2023-02-14T03:00:49;103336.78;;;-0.18;100.00
59513;BME280;45330;51.634;5.562;2023-02-14T03:03:17;103367.44;;;-0.07;100.00
59513;BME280;45330;51.634;5.562;2023-02-14T03:06:02;103366.53;;;-0.08;100.00
59513;BME280;45330;51.634;5.562;2023-02-14T03:08:28;103368.75;;;-0.12;100.00
59513;BME280;45330;51.634;5.562;2023-02-14T03:10:53;103348.38;;;-0.33;100.00
59513;BME280;45330;51.634;5.562;2023-02-14T03:13:52;103369.81;;;-0.21;100.00
59513;BME280;45330;51.634;5.562;2023-02-14T03:16:32;103367.13;;;-0.22;100.00
59513;BME280;45330;51.634;5.562;2023-02-14T03:20:06;103365.00;;;-0.28;100.00
59513;BME280;45330;51.634;5.562;2023-02-14T03:22:31;103364.06;;;-0.28;100.00
59513;BME280;45330;51.634;5.562;2023-02-14T03:25:09;103364.88;;;-0.29;100.00
59513;BME280;45330;51.634;5.562;2023-02-14T03:27:44;103349.78;;;-0.37;100.00
59513;BME280;45330;51.634;5.562;2023-02-14T03:30:27;103365.22;;;-0.25;100.00
59513;BME280;45330;51.634;5.562;2023-02-14T03:33:06;103355.41;;;-0.30;100.00
59513;BME280;45330;51.634;5.562;2023-02-14T03:35:53;103370.03;;;-0.18;100.00
59513;BME280;45330;51.634;5.562;2023-02-14T03:38:40;103361.09;;;-0.23;100.00
59513;BME280;45330;51.634;5.562;2023-02-14T03:41:13;103357.66;;;-0.23;100.00
59513;BME280;45330;51.634;5.562;2023-02-14T03:43:45;103357.78;;;-0.22;100.00
59513;BME280;45330;51.634;5.562;2023-02-14T03:46:17;103344.09;;;-0.22;100.00
59513;BME280;45330;51.634;5.562;2023-02-14T03:48:44;103345.50;;;-0.15;100.00
59513;BME280;45330;51.634;5.562;2023-02-14T03:51:13;103338.16;;;-0.11;100.00
59513;BME280;45330;51.634;5.562;2023-02-14T03:53:42;103363.50;;;0.08;100.00
59513;BME280;45330;51.634;5.562;2023-02-14T03:56:34;103363.75;;;0.11;100.00
59513;BME280;45330;51.634;5.562;2023-02-14T03:59:12;103353.16;;;0.07;100.00
59513;BME280;45330;51.634;5.562;2023-02-14T04:02:00;103345.78;;;-0.01;100.00
59513;BME280;45330;51.634;5.562;2023-02-14T04:04:30;103337.97;;;-0.02;100.00
59513;BME280;45330;51.634;5.562;2023-02-14T04:06:57;103356.13;;;0.01;100.00
59513;BME280;45330;51.634;5.562;2023-02-14T04:09:22;103354.50;;;-0.09;100.00
59513;BME280;45330;51.634;5.562;2023-02-14T04:11:48;103348.41;;;-0.11;100.00
59513;BME280;45330;51.634;5.562;2023-02-14T04:14:15;103370.25;;;-0.04;100.00
59513;BME280;45330;51.634;5.562;2023-02-14T04:16:41;103340.09;;;-0.19;100.00
59513;BME280;45330;51.634;5.562;2023-02-14T04:19:25;103364.41;;;-0.13;100.00
59513;BME280;45330;51.634;5.562;2023-02-14T04:21:51;103358.00;;;-0.19;100.00
59513;BME280;45330;51.634;5.562;2023-02-14T04:24:17;103350.34;;;-0.19;100.00
59513;BME280;45330;51.634;5.562;2023-02-14T04:26:43;103351.53;;;-0.25;100.00
59513;BME280;45330;51.634;5.562;2023-02-14T04:29:20;103347.06;;;-0.28;100.00
59513;BME280;45330;51.634;5.562;2023-02-14T04:31:46;103365.69;;;-0.19;100.00
59513;BME280;45330;51.634;5.562;2023-02-14T04:34:12;103360.47;;;-0.20;100.00
59513;BME280;45330;51.634;5.562;2023-02-14T04:36:37;103364.81;;;-0.19;100.00
59513;BME280;45330;51.634;5.562;2023-02-14T04:39:03;103341.34;;;-0.36;100.00
59513;BME280;45330;51.634;5.562;2023-02-14T04:41:28;103358.97;;;-0.28;100.00
59513;BME280;45330;51.634;5.562;2023-02-14T04:43:54;103341.50;;;-0.44;100.00
59513;BME280;45330;51.634;5.562;2023-02-14T04:46:19;103347.78;;;-0.41;100.00
59513;BME280;45330;51.634;5.562;2023-02-14T04:48:45;103361.16;;;-0.33;100.00
59513;BME280;45330;51.634;5.562;2023-02-14T04:51:10;103356.69;;;-0.36;100.00
59513;BME280;45330;51.634;5.562;2023-02-14T04:53:35;103306.81;;;-0.63;100.00
59513;BME280;45330;51.634;5.562;2023-02-14T04:56:05;103353.13;;;-0.38;100.00
59513;BME280;45330;51.634;5.562;2023-02-14T04:58:30;103353.41;;;-0.45;100.00
59513;BME280;45330;51.634;5.562;2023-02-14T05:00:55;103344.59;;;-0.48;100.00
59513;BME280;45330;51.634;5.562;2023-02-14T05:03:21;103330.19;;;-0.58;100.00
59513;BME280;45330;51.634;5.562;2023-02-14T05:05:46;103330.06;;;-0.60;100.00
59513;BME280;45330;51.634;5.562;2023-02-14T05:08:11;103346.91;;;-0.52;100.00
59513;BME280;45330;51.634;5.562;2023-02-14T05:10:38;103341.44;;;-0.56;100.00
59513;BME280;45330;51.634;5.562;2023-02-14T05:13:03;103325.81;;;-0.59;100.00
59513;BME280;45330;51.634;5.562;2023-02-14T05:15:29;103334.28;;;-0.60;100.00
59513;BME280;45330;51.634;5.562;2023-02-14T05:17:54;103335.19;;;-0.60;100.00
59513;BME280;45330;51.634;5.562;2023-02-14T05:20:19;103321.53;;;-0.71;100.00
59513;BME280;45330;51.634;5.562;2023-02-14T05:22:45;103320.88;;;-0.68;100.00
59513;BME280;45330;51.634;5.562;2023-02-14T05:25:10;103330.94;;;-0.59;100.00
59513;BME280;45330;51.634;5.562;2023-02-14T05:27:35;103315.00;;;-0.67;100.00
59513;BME280;45330;51.634;5.562;2023-02-14T05:30:01;103329.81;;;-0.63;100.00
59513;BME280;45330;51.634;5.562;2023-02-14T05:32:26;103325.59;;;-0.62;100.00
59513;BME280;45330;51.634;5.562;2023-02-14T05:34:51;103311.94;;;-0.73;100.00
59513;BME280;45330;51.634;5.562;2023-02-14T05:37:17;103334.03;;;-0.63;100.00
59513;BME280;45330;51.634;5.562;2023-02-14T05:39:42;103290.13;;;-0.90;100.00
59513;BME280;45330;51.634;5.562;2023-02-14T05:42:08;103338.78;;;-0.68;100.00
59513;BME280;45330;51.634;5.562;2023-02-14T05:44:34;103315.28;;;-0.84;100.00
59513;BME280;45330;51.634;5.562;2023-02-14T05:46:59;103335.97;;;-0.71;100.00
59513;BME280;45330;51.634;5.562;2023-02-14T05:49:25;103315.97;;;-0.87;100.00
59513;BME280;45330;51.634;5.562;2023-02-14T05:51:50;103312.50;;;-0.88;100.00
59513;BME280;45330;51.634;5.562;2023-02-14T05:54:16;103328.06;;;-0.84;100.00
59513;BME280;45330;51.634;5.562;2023-02-14T05:56:41;103307.66;;;-0.95;100.00
59513;BME280;45330;51.634;5.562;2023-02-14T05:59:06;103304.88;;;-0.98;100.00
59513;BME280;45330;51.634;5.562;2023-02-14T06:01:32;103311.91;;;-0.95;100.00
59513;BME280;45330;51.634;5.562;2023-02-14T06:03:57;103331.56;;;-0.84;100.00
59513;BME280;45330;51.634;5.562;2023-02-14T06:06:22;103315.09;;;-0.98;100.00
59513;BME280;45330;51.634;5.562;2023-02-14T06:08:48;103333.59;;;-0.90;100.00
59513;BME280;45330;51.634;5.562;2023-02-14T06:11:13;103314.34;;;-1.07;100.00
59513;BME280;45330;51.634;5.562;2023-02-14T06:13:39;103334.66;;;-0.98;100.00
59513;BME280;45330;51.634;5.562;2023-02-14T06:16:05;103354.19;;;-0.99;100.00
59513;BME280;45330;51.634;5.562;2023-02-14T06:18:31;103339.25;;;-1.05;100.00
59513;BME280;45330;51.634;5.562;2023-02-14T06:20:56;103338.88;;;-1.09;100.00
59513;BME280;45330;51.634;5.562;2023-02-14T06:23:21;103346.53;;;-1.09;100.00
59513;BME280;45330;51.634;5.562;2023-02-14T06:25:47;103358.28;;;-1.11;100.00
59513;BME280;45330;51.634;5.562;2023-02-14T06:28:12;103350.00;;;-1.19;100.00
59513;BME280;45330;51.634;5.562;2023-02-14T06:30:37;103353.44;;;-1.18;100.00
59513;BME280;45330;51.634;5.562;2023-02-14T06:33:03;103360.84;;;-1.22;100.00
59513;BME280;45330;51.634;5.562;2023-02-14T06:35:34;103360.25;;;-1.29;100.00
59513;BME280;45330;51.634;5.562;2023-02-14T06:37:59;103358.31;;;-1.32;100.00
59513;BME280;45330;51.634;5.562;2023-02-14T06:40:25;103337.13;;;-1.51;100.00
59513;BME280;45330;51.634;5.562;2023-02-14T06:42:50;103356.78;;;-1.40;100.00
59513;BME280;45330;51.634;5.562;2023-02-14T06:45:16;103359.84;;;-1.44;100.00
59513;BME280;45330;51.634;5.562;2023-02-14T06:47:41;103361.63;;;-1.43;100.00
59513;BME280;45330;51.634;5.562;2023-02-14T06:50:07;103363.16;;;-1.45;100.00
59513;BME280;45330;51.634;5.562;2023-02-14T06:52:35;103335.69;;;-1.58;100.00
59513;BME280;45330;51.634;5.562;2023-02-14T06:55:01;103354.06;;;-1.52;100.00
59513;BME280;45330;51.634;5.562;2023-02-14T06:57:26;103350.41;;;-1.56;100.00
59513;BME280;45330;51.634;5.562;2023-02-14T06:59:52;103345.41;;;-1.54;100.00
59513;BME280;45330;51.634;5.562;2023-02-14T07:02:17;103366.75;;;-1.43;100.00
59513;BME280;45330;51.634;5.562;2023-02-14T07:04:42;103369.03;;;-1.46;100.00
59513;BME280;45330;51.634;5.562;2023-02-14T07:07:08;103358.56;;;-1.49;100.00
59513;BME280;45330;51.634;5.562;2023-02-14T07:09:33;103364.94;;;-1.44;100.00
59513;BME280;45330;51.634;5.562;2023-02-14T07:11:59;103375.16;;;-1.44;100.00
59513;BME280;45330;51.634;5.562;2023-02-14T07:14:24;103370.06;;;-1.44;100.00
59513;BME280;45330;51.634;5.562;2023-02-14T07:16:50;103348.59;;;-1.57;100.00
59513;BME280;45330;51.634;5.562;2023-02-14T07:19:15;103376.47;;;-1.39;100.00
59513;BME280;45330;51.634;5.562;2023-02-14T07:21:41;103365.72;;;-1.35;100.00
59513;BME280;45330;51.634;5.562;2023-02-14T07:24:06;103361.13;;;-1.39;100.00
59513;BME280;45330;51.634;5.562;2023-02-14T07:26:32;103372.09;;;-1.30;100.00
59513;BME280;45330;51.634;5.562;2023-02-14T07:28:57;103349.13;;;-1.40;100.00
59513;BME280;45330;51.634;5.562;2023-02-14T07:31:22;103376.44;;;-1.18;100.00
59513;BME280;45330;51.634;5.562;2023-02-14T07:33:49;103356.13;;;-1.27;100.00
59513;BME280;45330;51.634;5.562;2023-02-14T07:36:15;103374.16;;;-1.05;100.00
59513;BME280;45330;51.634;5.562;2023-02-14T07:38:40;103378.34;;;-0.95;100.00
59513;BME280;45330;51.634;5.562;2023-02-14T07:41:05;103375.41;;;-0.90;100.00
59513;BME280;45330;51.634;5.562;2023-02-14T07:43:31;103366.56;;;-0.83;100.00
59513;BME280;45330;51.634;5.562;2023-02-14T07:45:59;103357.88;;;-0.85;100.00
59513;BME280;45330;51.634;5.562;2023-02-14T07:48:25;103352.13;;;-0.82;100.00
59513;BME280;45330;51.634;5.562;2023-02-14T07:50:51;103368.31;;;-0.61;100.00
59513;BME280;45330;51.634;5.562;2023-02-14T07:53:16;103370.47;;;-0.56;100.00
59513;BME280;45330;51.634;5.562;2023-02-14T07:55:42;103364.81;;;-0.52;100.00
59513;BME280;45330;51.634;5.562;2023-02-14T07:58:07;103361.97;;;-0.44;100.00
59513;BME280;45330;51.634;5.562;2023-02-14T08:00:32;103371.81;;;-0.39;100.00
59513;BME280;45330;51.634;5.562;2023-02-14T08:02:58;103351.97;;;-0.41;100.00
59513;BME280;45330;51.634;5.562;2023-02-14T08:05:23;103360.28;;;-0.33;100.00
59513;BME280;45330;51.634;5.562;2023-02-14T08:07:49;103357.00;;;-0.21;100.00
59513;BME280;45330;51.634;5.562;2023-02-14T08:10:15;103330.16;;;-0.26;100.00
59513;BME280;45330;51.634;5.562;2023-02-14T08:12:40;103336.00;;;-0.16;100.00
59513;BME280;45330;51.634;5.562;2023-02-14T08:15:31;103352.38;;;0.08;100.00
59513;BME280;45330;51.634;5.562;2023-02-14T08:18:16;103329.88;;;0.04;100.00
59513;BME280;45330;51.634;5.562;2023-02-14T08:20:43;103344.63;;;0.18;100.00
59513;BME280;45330;51.634;5.562;2023-02-14T08:23:08;103330.41;;;0.22;100.00
59513;BME280;45330;51.634;5.562;2023-02-14T08:25:33;103338.53;;;0.28;100.00
59513;BME280;45330;51.634;5.562;2023-02-14T08:28:01;103334.69;;;0.33;100.00
59513;BME280;45330;51.634;5.562;2023-02-14T08:30:27;103358.00;;;0.48;100.00
59513;BME280;45330;51.634;5.562;2023-02-14T08:32:52;103334.13;;;0.37;100.00
59513;BME280;45330;51.634;5.562;2023-02-14T08:35:17;103358.91;;;0.60;100.00
59513;BME280;45330;51.634;5.562;2023-02-14T08:37:43;103363.59;;;0.66;100.00
59513;BME280;45330;51.634;5.562;2023-02-14T08:40:08;103358.75;;;0.69;100.00
59513;BME280;45330;51.634;5.562;2023-02-14T08:42:34;103340.09;;;0.60;100.00
59513;BME280;45330;51.634;5.562;2023-02-14T08:44:59;103332.19;;;0.68;100.00
59513;BME280;45330;51.634;5.562;2023-02-14T08:47:24;103358.31;;;0.98;100.00
59513;BME280;45330;51.634;5.562;2023-02-14T08:49:50;103334.91;;;0.94;100.00
59513;BME280;45330;51.634;5.562;2023-02-14T08:52:15;103348.19;;;1.12;100.00
59513;BME280;45330;51.634;5.562;2023-02-14T08:54:41;103351.31;;;1.19;100.00
59513;BME280;45330;51.634;5.562;2023-02-14T08:57:07;103357.34;;;1.32;100.00
59513;BME280;45330;51.634;5.562;2023-02-14T08:59:32;103342.16;;;1.35;100.00
59513;BME280;45330;51.634;5.562;2023-02-14T09:01:58;103338.56;;;1.45;100.00
59513;BME280;45330;51.634;5.562;2023-02-14T09:04:23;103350.63;;;1.58;100.00
59513;BME280;45330;51.634;5.562;2023-02-14T09:06:49;103355.84;;;1.71;100.00
59513;BME280;45330;51.634;5.562;2023-02-14T09:09:14;103364.78;;;1.76;100.00
59513;BME280;45330;51.634;5.562;2023-02-14T09:11:41;103360.97;;;1.83;100.00
59513;BME280;45330;51.634;5.562;2023-02-14T09:14:07;103333.50;;;1.82;100.00
59513;BME280;45330;51.634;5.562;2023-02-14T09:16:33;103355.13;;;1.97;100.00
59513;BME280;45330;51.634;5.562;2023-02-14T09:18:58;103355.84;;;2.08;100.00
59513;BME280;45330;51.634;5.562;2023-02-14T09:21:26;103361.16;;;2.23;100.00
59513;BME280;45330;51.634;5.562;2023-02-14T09:23:52;103364.38;;;2.32;100.00
59513;BME280;45330;51.634;5.562;2023-02-14T09:26:18;103361.34;;;2.38;100.00
59513;BME280;45330;51.634;5.562;2023-02-14T09:28:44;103350.38;;;2.40;100.00
59513;BME280;45330;51.634;5.562;2023-02-14T09:31:19;103325.13;;;2.35;100.00
59513;BME280;45330;51.634;5.562;2023-02-14T09:33:46;103335.16;;;2.44;100.00
59513;BME280;45330;51.634;5.562;2023-02-14T09:36:30;103347.06;;;2.68;100.00
59513;BME280;45330;51.634;5.562;2023-02-14T09:38:55;103347.69;;;2.78;100.00
59513;BME280;45330;51.634;5.562;2023-02-14T09:44:05;103351.56;;;2.98;100.00
59513;BME280;45330;51.634;5.562;2023-02-14T09:46:39;103332.59;;;2.96;100.00
59513;BME280;45330;51.634;5.562;2023-02-14T09:49:09;103342.28;;;3.13;100.00
59513;BME280;45330;51.634;5.562;2023-02-14T09:51:38;103332.41;;;3.19;100.00
59513;BME280;45330;51.634;5.562;2023-02-14T09:54:12;103330.22;;;3.25;100.00
59513;BME280;45330;51.634;5.562;2023-02-14T10:02:22;103339.38;;;3.49;100.00
59513;BME280;45330;51.634;5.562;2023-02-14T10:05:21;103338.50;;;3.62;100.00
59513;BME280;45330;51.634;5.562;2023-02-14T10:10:36;103335.78;;;3.73;100.00
59513;BME280;45330;51.634;5.562;2023-02-14T10:13:25;103333.69;;;3.81;100.00
59513;BME280;45330;51.634;5.562;2023-02-14T10:16:09;103327.66;;;3.81;100.00
59513;BME280;45330;51.634;5.562;2023-02-14T10:21:54;103303.91;;;4.00;100.00
59513;BME280;45330;51.634;5.562;2023-02-14T10:24:28;103326.00;;;4.24;100.00
59513;BME280;45330;51.634;5.562;2023-02-14T10:27:01;103303.41;;;4.20;100.00
59513;BME280;45330;51.634;5.562;2023-02-14T10:29:27;103328.63;;;4.39;100.00
59513;BME280;45330;51.634;5.562;2023-02-14T10:32:01;103313.31;;;4.42;100.00
59513;BME280;45330;51.634;5.562;2023-02-14T10:50:53;103299.06;;;5.09;100.00
59513;BME280;45330;51.634;5.562;2023-02-14T10:54:35;103281.47;;;5.02;100.00
59513;BME280;45330;51.634;5.562;2023-02-14T10:57:08;103299.03;;;5.24;100.00
59513;BME280;45330;51.634;5.562;2023-02-14T11:02:21;103277.03;;;5.30;100.00
59513;BME280;45330;51.634;5.562;2023-02-14T11:04:49;103290.94;;;5.49;100.00
59513;BME280;45330;51.634;5.562;2023-02-14T11:07:16;103284.59;;;5.59;100.00
59513;BME280;45330;51.634;5.562;2023-02-14T11:09:42;103277.06;;;5.63;100.00
59513;BME280;45330;51.634;5.562;2023-02-14T11:12:08;103271.94;;;5.80;100.00
59513;BME280;45330;51.634;5.562;2023-02-14T11:14:38;103277.22;;;5.98;100.00
59513;BME280;45330;51.634;5.562;2023-02-14T11:17:27;103276.56;;;6.02;100.00
59513;BME280;45330;51.634;5.562;2023-02-14T11:20:01;103266.75;;;6.13;100.00
59513;BME280;45330;51.634;5.562;2023-02-14T11:22:29;103252.16;;;6.13;100.00
59513;BME280;45330;51.634;5.562;2023-02-14T11:25:05;103244.31;;;6.12;100.00
59513;BME280;45330;51.634;5.562;2023-02-14T11:27:31;103258.03;;;6.27;100.00
59513;BME280;45330;51.634;5.562;2023-02-14T11:29:57;103264.31;;;6.32;100.00
59513;BME280;45330;51.634;5.562;2023-02-14T11:32:28;103241.84;;;6.31;100.00
59513;BME280;45330;51.634;5.562;2023-02-14T11:37:37;103255.47;;;6.63;100.00
59513;BME280;45330;51.634;5.562;2023-02-14T11:40:04;103252.03;;;6.63;100.00
59513;BME280;45330;51.634;5.562;2023-02-14T11:42:40;103224.16;;;6.57;100.00
59513;BME280;45330;51.634;5.562;2023-02-14T11:50:30;103218.75;;;6.70;100.00
59513;BME280;45330;51.634;5.562;2023-02-14T11:52:56;103220.22;;;6.83;100.00
59513;BME280;45330;51.634;5.562;2023-02-14T11:55:26;103202.56;;;6.75;100.00
59513;BME280;45330;51.634;5.562;2023-02-14T11:57:53;103225.25;;;6.98;100.00
59513;BME280;45330;51.634;5.562;2023-02-14T12:00:19;103202.31;;;7.06;100.00
59513;BME280;45330;51.634;5.562;2023-02-14T12:02:47;103212.63;;;7.24;100.00
59513;BME280;45330;51.634;5.562;2023-02-14T12:05:26;103202.25;;;7.24;100.00
59513;BME280;45330;51.634;5.562;2023-02-14T12:07:54;103198.63;;;7.38;100.00
59513;BME280;45330;51.634;5.562;2023-02-14T12:10:29;103183.88;;;7.37;100.00
59513;BME280;45330;51.634;5.562;2023-02-14T12:15:36;103201.47;;;7.64;100.00
59513;BME280;45330;51.634;5.562;2023-02-14T12:20:41;103166.97;;;7.65;100.00
59513;BME280;45330;51.634;5.562;2023-02-14T12:23:25;103177.31;;;7.85;100.00
59513;BME280;45330;51.634;5.562;2023-02-14T12:28:57;103176.72;;;8.12;100.00
59513;BME280;45330;51.634;5.562;2023-02-14T12:31:26;103172.53;;;8.15;100.00
59513;BME280;45330;51.634;5.562;2023-02-14T12:33:51;103173.78;;;8.25;100.00
59513;BME280;45330;51.634;5.562;2023-02-14T12:39:07;103165.81;;;8.41;100.00
59513;BME280;45330;51.634;5.562;2023-02-14T12:41:55;103171.28;;;8.48;100.00
59513;BME280;45330;51.634;5.562;2023-02-14T12:55:13;103146.13;;;8.68;100.00
59513;BME280;45330;51.634;5.562;2023-02-14T13:03:37;103131.19;;;8.85;100.00
59513;BME280;45330;51.634;5.562;2023-02-14T13:14:20;103114.31;;;9.20;100.00
59513;BME280;45330;51.634;5.562;2023-02-14T13:16:53;103112.63;;;9.22;100.00
59513;BME280;45330;51.634;5.562;2023-02-14T13:21:57;103104.28;;;9.07;100.00
59513;BME280;45330;51.634;5.562;2023-02-14T13:24:28;103093.31;;;9.14;100.00
59513;BME280;45330;51.634;5.562;2023-02-14T13:26:59;103100.91;;;9.34;100.00
59513;BME280;45330;51.634;5.562;2023-02-14T13:29:28;103096.81;;;9.40;100.00
59513;BME280;45330;51.634;5.562;2023-02-14T13:32:01;103102.97;;;9.42;100.00
59513;BME280;45330;51.634;5.562;2023-02-14T13:34:56;103081.97;;;9.36;100.00
59513;BME280;45330;51.634;5.562;2023-02-14T13:37:24;103071.06;;;9.22;100.00
59513;BME280;45330;51.634;5.562;2023-02-14T13:39:55;103079.25;;;9.33;100.00
59513;BME280;45330;51.634;5.562;2023-02-14T13:58:55;103062.03;;;9.35;100.00
59513;BME280;45330;51.634;5.562;2023-02-14T14:01:44;103065.41;;;9.33;100.00
59513;BME280;45330;51.634;5.562;2023-02-14T14:09:53;103061.44;;;9.44;100.00
59513;BME280;45330;51.634;5.562;2023-02-14T14:17:45;103057.94;;;9.43;100.00
59513;BME280;45330;51.634;5.562;2023-02-14T14:22:50;103035.97;;;9.59;100.00
59513;BME280;45330;51.634;5.562;2023-02-14T14:27:56;103021.78;;;9.50;100.00
59513;BME280;45330;51.634;5.562;2023-02-14T14:30:28;103044.66;;;9.60;100.00
59513;BME280;45330;51.634;5.562;2023-02-14T14:38:18;103046.72;;;9.44;100.00
59513;BME280;45330;51.634;5.562;2023-02-14T14:40:45;103048.13;;;9.35;100.00
59513;BME280;45330;51.634;5.562;2023-02-14T14:45:38;103040.91;;;9.26;100.00
59513;BME280;45330;51.634;5.562;2023-02-14T14:48:09;103021.72;;;9.22;100.00
59513;BME280;45330;51.634;5.562;2023-02-14T14:50:36;103039.47;;;9.34;100.00
59513;BME280;45330;51.634;5.562;2023-02-14T14:53:08;103029.75;;;9.29;100.00
59513;BME280;45330;51.634;5.562;2023-02-14T14:55:45;103025.41;;;9.29;100.00
59513;BME280;45330;51.634;5.562;2023-02-14T14:58:46;103038.84;;;9.41;100.00
59513;BME280;45330;51.634;5.562;2023-02-14T15:01:23;103031.72;;;9.36;100.00
59513;BME280;45330;51.634;5.562;2023-02-14T15:03:51;103028.75;;;9.25;100.00
59513;BME280;45330;51.634;5.562;2023-02-14T15:06:19;103026.25;;;9.28;100.00
59513;BME280;45330;51.634;5.562;2023-02-14T15:08:45;103020.06;;;9.24;100.00
59513;BME280;45330;51.634;5.562;2023-02-14T15:11:24;103028.84;;;9.28;100.00
59513;BME280;45330;51.634;5.562;2023-02-14T15:14:15;103011.06;;;9.15;100.00
59513;BME280;45330;51.634;5.562;2023-02-14T15:16:47;103021.72;;;9.22;100.00
59513;BME280;45330;51.634;5.562;2023-02-14T15:19:20;103018.69;;;9.34;100.00
59513;BME280;45330;51.634;5.562;2023-02-14T15:21:47;103023.97;;;9.37;100.00
59513;BME280;45330;51.634;5.562;2023-02-14T15:24:16;103037.84;;;9.38;100.00
59513;BME280;45330;51.634;5.562;2023-02-14T15:26:44;103014.81;;;9.23;100.00
59513;BME280;45330;51.634;5.562;2023-02-14T15:29:22;103026.31;;;9.30;100.00
59513;BME280;45330;51.634;5.562;2023-02-14T15:31:48;103009.41;;;9.17;100.00
59513;BME280;45330;51.634;5.562;2023-02-14T15:34:14;103011.84;;;9.12;100.00